Terminal Aerodrome Forecast
Issued by NWS

Home | Current Version | Previous Version | Text Only | Print | Product List | Glossary On
Versions: 1 2 3 4 5 6 7 8 9 10 11 12
000
FTUS42 TJSJ 300520
TAFJMZ
TAF
TJMZ 300520Z 3006/0106 07010KT P6SM VCSH SCT025 SCT040 BKN060
      TEMPO 3006/3010 6SM -RA SCT025 BKN050
     FM301500 09010KT P6SM VCSH SCT025 SCT040 BKN050
     FM302300 06007KT P6SM FEW025 SCT080
      AMD NOT SKED=

USA.gov is the U.S. government's official web portal to all federal, state and local government web resources and services.